Latest Coastal Weather Observations for Cape Grim

IDT60701

Issued at 7:03 am EST Wednesday 24 August 2016 (issued every 10 minutes, with the page automatically refreshed every 10 minutes)

About coastal observations | Map of coastal stations | Coastal observations for TAS | Marine services | Other Formats
Station Details ID: 091331 Name: CAPE GRIM Lat: -40.68 Lon: 144.69 Height: 86.0 m
Data from the previous 72 hours. | See also: Recent months at Cape Grim
Date/Time
EST
Temp
°C
Wind Pressure Rain since
9am
mm
Weather Cloud Vis
km
Sea
Height
m
Swell
Dir  Spd
kts
Gust
kts
hPa Trend Height
m
Period
s
Dir
24/07:00am 9.2 SW 7 12 1015.9 - 0.2 - - - - - - -
24/06:30am 9.1 WSW 8 14 1015.9 - 0.2 - - - - - - -
24/06:00am 9.3 W 7 14 1015.9 - 0.2 - - - - - - -
24/05:30am 9.4 SW 11 17 1015.7 - 0.2 - - - - - - -
24/05:00am 9.3 SW 12 19 1015.6 - 0.2 - - - - - - -
24/04:30am 9.3 SW 14 21 1015.3 - 0.2 - - - - - - -
24/04:00am 9.2 SW 12 17 1015.5 - 0.2 - - - - - - -
24/03:30am 9.1 SW 16 19 1015.5 - 0.2 - - - - - - -
24/03:00am 9.4 SW 17 21 1015.7 - 0.2 - - - - - - -
24/02:30am 9.4 SW 13 18 1016.0 - 0.2 - - - - - - -
24/02:00am 9.6 SW 15 20 1016.3 - 0.2 - - - - - - -
24/01:30am 9.4 SW 13 19 1016.3 - 0.2 - - - - - - -
24/01:00am 9.4 SW 15 21 1016.4 - 0.2 - - - - - - -
24/12:30am 9.4 SW 13 18 1016.3 - 0.2 - - - - - - -
24/12:00am 8.1 SSW 7 9 1016.6 - 0.2 Recent precip. - - - - - -
 
Date/Time
EST
Temp
°C
Wind Pressure Rain since
9am
mm
Weather Cloud Vis
km
Sea
Height
m
Swell
Dir  Spd
kts
Gust
kts
hPa Trend Height
m
Period
s
Dir
23/11:30pm 8.0 S 8 11 1016.9 - 0.2 - - - - - - -
23/11:00pm 8.5 SW 15 21 1017.2 - 0.0 - - - - - - -
23/10:30pm 7.6 SSW 7 9 1017.4 - 0.0 - - - - - - -
23/10:00pm 7.5 S 7 9 1017.6 - 0.0 - - - - - - -
23/09:30pm 7.8 S 7 9 1017.8 - 0.0 - - - - - - -
23/09:00pm 8.4 S 6 11 1017.6 - 0.0 - - - - - - -
23/08:30pm 8.6 WSW 4 9 1017.4 - 0.0 - - - - - - -
23/08:00pm 8.2 SW 5 8 1017.2 - 0.0 - - - - - - -
23/07:30pm 8.0 SW 9 14 1017.2 - 0.0 - - - - - - -
23/07:00pm 8.4 SW 13 18 1017.2 - 0.0 - - - - - - -
23/06:30pm 8.3 SW 9 12 1017.0 - 0.0 - - - - - - -
23/06:00pm 8.8 SW 19 26 1016.9 - 0.0 - - - - - - -
23/05:53pm 9.6 SW 15 26 1016.8 - 0.0 - - - - - - -
23/05:30pm 9.5 SW 12 15 1016.6 - 0.0 - - - - - - -
23/05:00pm 9.3 SW 13 16 1016.5 - 0.0 - - - - - - -
23/04:30pm 9.9 SSW 11 15 1016.4 - 0.0 - - - - - - -
23/04:00pm 10.2 SW 15 19 1016.2 - 0.0 - - - - - - -
23/03:30pm 10.3 SW 14 17 1016.1 - 0.0 - - - - - - -
23/03:00pm 10.2 SW 14 18 1015.9 - 0.0 - - - - - - -
23/02:30pm 10.4 SSW 14 18 1015.6 - 0.0 - - - - - - -
23/02:00pm 10.9 SSW 12 17 1015.5 - 0.0 - - - - - - -
23/01:30pm 10.9 SW 12 16 1015.6 - 0.0 - - - - - - -
23/01:00pm 10.8 SW 12 17 1015.8 - 0.0 - - - - - - -
23/12:30pm 10.7 SSW 12 16 1016.2 - 0.0 - - - - - - -
23/12:00pm 10.3 SSW 13 19 1016.5 - 0.0 - - - - - - -
23/11:30am 10.4 SW 14 21 1016.7 - 0.0 - - - - - - -
23/11:00am 9.7 SW 15 22 1016.9 - 0.0 - - - - - - -
23/10:30am 8.8 SW 16 23 1017.0 - 0.0 - - - - - - -
23/10:00am 10.1 SW 15 18 1016.7 - 0.0 - - - - - - -
23/09:30am 10.3 SW 15 19 1016.8 - 0.0 - - - - - - -
23/09:00am 9.8 SW 14 19 1016.6 - 1.2 - - - - - - -
23/08:30am 9.6 SW 15 20 1016.5 - 1.2 - - - - - - -
23/08:00am 9.5 SW 16 21 1016.3 - 1.2 - - - - - - -
23/07:30am 9.3 SW 17 21 1016.1 - 1.2 - - - - - - -
23/07:00am 9.1 SW 14 19 1015.7 - 1.2 - - - - - - -
23/06:30am 9.3 SW 17 24 1015.5 - 1.2 - - - - - - -
23/06:00am 9.1 SSW 15 20 1015.2 - 1.2 Recent precip. - - - - - -
23/05:30am 9.0 SW 15 23 1015.2 - 1.2 - - - - - - -
23/05:00am 9.3 SW 16 19 1015.0 - 1.0 - - - - - - -
23/04:30am 8.8 SSW 14 20 1015.0 - 1.0 - - - - - - -
23/04:00am 8.5 SW 11 16 1014.9 - 1.0 - - - - - - -
23/03:30am 8.6 SW 12 20 1014.9 - 0.8 - - - - - - -
23/03:00am 8.5 SW 8 13 1015.1 - 0.8 - - - - - - -
23/02:30am 7.7 S 4 7 1015.3 - 0.8 - - - - - - -
23/02:00am 8.6 SSW 11 16 1015.5 - 0.8 - - - - - - -
23/01:30am 8.4 SW 11 13 1015.6 - 0.8 - - - - - - -
23/01:00am 8.6 SSW 14 18 1015.6 - 0.8 - - - - - - -
23/12:30am 9.5 SW 14 18 1015.5 - 0.6 - - - - - - -
23/12:00am 8.5 SW 11 13 1015.5 - 0.6 - - - - - - -
 
Date/Time
EST
Temp
°C
Wind Pressure Rain since
9am
mm
Weather Cloud Vis
km
Sea
Height
m
Swell
Dir  Spd
kts
Gust
kts
hPa Trend Height
m
Period
s
Dir
22/11:36pm 8.7 SW 15 25 1015.3 - 0.6 - - - - - - -
22/11:30pm 9.6 SW 11 17 1015.3 - 0.6 - - - - - - -
22/11:00pm 9.1 SW 12 17 1015.4 - 0.6 - - - - - - -
22/10:30pm 9.5 WSW 11 16 1015.4 - 0.0 - - - - - - -
22/10:00pm 9.5 WSW 10 16 1015.2 - 0.0 - - - - - - -
22/09:30pm 8.8 SW 12 24 1015.2 - 0.0 - - - - - - -
22/09:27pm 8.6 SW 16 26 1015.2 - 0.0 - - - - - - -
22/09:00pm 9.8 WSW 9 18 1014.8 - 0.0 - - - - - - -
22/08:30pm 9.7 SW 13 19 1014.7 - 0.0 - - - - - - -
22/08:00pm 9.6 SW 14 19 1014.5 - 0.0 - - - - - - -
22/07:30pm 9.7 SW 14 20 1014.2 - 0.0 - - - - - - -
22/07:00pm 9.7 SW 13 21 1014.1 - 0.0 - - - - - - -
22/06:30pm 9.7 SW 13 19 1013.8 - 0.0 - - - - - - -
22/06:00pm 9.8 SW 11 16 1013.6 - 0.0 - - - - - - -
22/05:30pm 9.5 SW 15 19 1013.4 - 0.0 - - - - - - -
22/05:00pm 9.9 SW 13 18 1013.2 - 0.0 - - - - - - -
22/04:30pm 10.0 SW 13 17 1013.0 - 0.0 - - - - - - -
22/04:00pm 10.1 WSW 10 17 1013.0 - 0.0 - - - - - - -
22/03:30pm 10.5 SW 13 17 1012.8 - 0.0 - - - - - - -
22/03:00pm 10.2 SW 13 17 1012.9 - 0.0 - - - - - - -
22/02:30pm 9.4 SW 17 22 1012.8 - 0.0 - - - - - - -
22/02:00pm 10.6 SW 13 19 1012.7 - 0.0 - - - - - - -
22/01:30pm 10.5 SW 13 18 1012.8 - 0.0 - - - - - - -
22/01:00pm 10.6 SW 13 18 1012.8 - 0.0 - - - - - - -
22/12:30pm 11.1 WSW 8 15 1013.0 - 0.0 - - - - - - -
22/12:00pm 10.8 W 8 14 1013.3 - 0.0 - - - - - - -
22/11:30am 10.5 W 9 16 1013.5 - 0.0 - - - - - - -
22/11:00am 10.4 WSW 9 14 1013.5 - 0.0 - - - - - - -
22/10:30am 10.3 W 9 16 1013.4 - 0.0 - - - - - - -
22/10:00am 10.4 WSW 8 13 1013.4 - 0.0 - - - - - - -
22/09:30am 9.7 WSW 9 15 1013.4 - 0.0 - - - - - - -
22/09:00am 10.2 WSW 7 11 1013.3 - 0.2 - - - - - - -
22/08:30am 10.0 WSW 7 11 1013.1 - 0.2 - - - - - - -
22/08:00am 9.7 SW 10 15 1013.0 - 0.2 - - - - - - -
22/07:30am 9.4 WSW 7 15 1012.7 - 0.2 - - - - - - -
22/07:00am 9.5 WSW 9 14 1012.4 - 0.2 - - - - - - -
22/06:30am 9.2 WSW 7 11 1012.2 - 0.2 - - - - - - -
22/06:00am 9.3 WSW 9 17 1012.0 - 0.2 - - - - - - -
22/05:30am 9.5 WSW 9 14 1011.9 - 0.2 - - - - - - -
22/05:00am 9.3 WSW 8 14 1011.9 - 0.2 - - - - - - -
22/04:30am 9.5 WSW 9 15 1012.0 - 0.2 - - - - - - -
22/04:00am 9.6 W 10 15 1011.9 - 0.2 - - - - - - -
22/03:30am 9.6 WSW 10 17 1011.8 - 0.2 - - - - - - -
22/03:00am 9.6 W 10 15 1011.8 - 0.2 - - - - - - -
22/02:30am 9.5 W 10 16 1012.1 - 0.2 - - - - - - -
22/02:00am 9.2 WSW 13 21 1012.2 - 0.2 - - - - - - -
22/01:30am 9.8 W 11 16 1012.2 - 0.2 - - - - - - -
22/01:00am 9.7 W 13 19 1012.2 - 0.2 - - - - - - -
22/12:30am 9.7 W 12 17 1012.1 - 0.2 - - - - - - -
22/12:00am 9.9 W 10 15 1012.1 - 0.2 - - - - - - -
 
Date/Time
EST
Temp
°C
Wind Pressure Rain since
9am
mm
Weather Cloud Vis
km
Sea
Height
m
Swell
Dir  Spd
kts
Gust
kts
hPa Trend Height
m
Period
s
Dir
21/11:30pm 9.9 WSW 9 17 1012.0 - 0.2 - - - - - - -
21/11:00pm 9.8 W 10 18 1012.0 - 0.2 - - - - - - -
21/10:30pm 9.6 W 12 17 1012.0 - 0.2 - - - - - - -
21/10:00pm 9.7 W 12 17 1012.1 - 0.2 - - - - - - -
21/09:30pm 9.7 W 12 17 1012.0 - 0.2 - - - - - - -
21/09:00pm 9.9 W 11 16 1011.9 - 0.2 - - - - - - -
21/08:30pm 9.8 W 11 16 1011.7 - 0.2 - - - - - - -
21/08:00pm 9.7 W 12 21 1011.7 - 0.2 - - - - - - -
21/07:30pm 9.9 W 11 19 1011.5 - 0.2 - - - - - - -
21/07:00pm 9.9 W 13 18 1011.3 - 0.2 - - - - - - -
21/06:30pm 10.0 W 13 19 1011.2 - 0.2 - - - - - - -
21/06:00pm 9.9 WSW 11 18 1011.1 - 0.2 - - - - - - -
21/05:30pm 10.0 WSW 13 20 1010.7 - 0.2 - - - - - - -
21/05:00pm 10.0 W 13 19 1010.8 - 0.2 - - - - - - -
21/04:30pm 10.2 W 13 21 1010.7 - 0.2 - - - - - - -
21/04:00pm 10.3 W 14 20 1010.6 - 0.2 - - - - - - -
21/03:30pm 10.4 W 14 22 1010.6 - 0.2 - - - - - - -
21/03:00pm 10.5 W 15 22 1010.8 - 0.2 - - - - - - -
21/02:57pm 10.4 W 15 25 1010.7 - 0.2 - - - - - - -
21/02:30pm 10.2 W 16 25 1010.7 - 0.2 - - - - - - -
21/02:00pm 10.3 W 12 20 1010.7 - 0.2 - - - - - - -
21/01:30pm 10.0 WSW 13 20 1011.0 - 0.2 - - - - - - -
21/01:07pm 10.3 W 15 25 1011.1 - 0.2 - - - - - - -
21/01:00pm 10.0 W 16 25 1011.1 - 0.2 - - - - - - -
21/12:30pm 10.1 W 16 23 1011.2 - 0.2 - - - - - - -
21/12:00pm 9.9 W 15 23 1011.4 - 0.2 - - - - - - -
21/11:41am 9.4 W 18 30 1011.4 - 0.2 - - - - - - -
21/11:30am 10.7 W 16 23 1011.3 - 0.2 - - - - - - -
21/11:00am 10.3 W 18 25 1011.4 - 0.2 - - - - - - -
21/10:30am 9.1 W 21 29 1011.3 - 0.2 - - - - - - -
21/10:00am 8.6 W 16 27 1011.4 - 0.0 - - - - - - -
21/09:50am 10.3 W 17 29 1011.1 - 0.0 - - - - - - -
21/09:30am 10.1 W 17 24 1011.1 - 0.0 - - - - - - -
21/09:00am 9.9 W 14 21 1011.0 - 2.6 - - - - - - -
21/08:35am 9.6 W 16 26 1010.8 - 2.6 - - - - - - -
21/08:30am 9.6 W 17 25 1010.8 - 2.6 - - - - - - -
21/08:00am 9.0 W 17 27 1010.6 - 2.6 - - - - - - -
21/07:30am 9.3 W 18 29 1010.2 - 2.6 - - - - - - -

Other Formats:

Comma delimited format used in spreadsheet applications
http://www.bom.gov.au/fwo/IDT60701/IDT60701.95954.axf

JavaScript Object Notation format (JSON) in row-major order
http://www.bom.gov.au/fwo/IDT60701/IDT60701.95954.json